createdAt,value
2022-10-28T00:01:21.881Z,6.70
2022-10-28T00:03:53.954Z,5.90
2022-10-28T00:06:24.073Z,6.25
2022-10-28T00:08:51.110Z,6.15
2022-10-28T00:11:26.155Z,6.43
2022-10-28T00:13:54.888Z,5.50
2022-10-28T00:16:27.116Z,5.75
2022-10-28T00:18:54.507Z,5.47
2022-10-28T00:21:24.077Z,6.63
2022-10-28T00:23:51.611Z,6.10
2022-10-28T00:26:23.492Z,6.43
2022-10-28T00:28:55.990Z,6.10
2022-10-28T00:33:50.562Z,5.95
2022-10-28T00:36:26.911Z,5.75
2022-10-28T00:38:56.060Z,6.90
2022-10-28T00:41:28.923Z,6.90
2022-10-28T00:43:58.188Z,7.68
2022-10-28T00:46:34.712Z,6.47
2022-10-28T00:49:27.027Z,5.95
2022-10-28T00:52:00.839Z,6.45
2022-10-28T00:54:28.088Z,6.63
2022-10-28T00:56:57.983Z,6.47
2022-10-28T00:59:32.542Z,6.70
2022-10-28T01:02:00.053Z,6.85
2022-10-28T01:04:28.100Z,6.10
2022-10-28T01:06:56.569Z,6.50
2022-10-28T01:09:23.348Z,6.20
2022-10-28T01:11:51.193Z,7.25
2022-10-28T01:14:26.700Z,7.22
2022-10-28T01:17:22.255Z,6.63
2022-10-28T01:20:26.689Z,6.38
2022-10-28T01:23:25.955Z,6.20
2022-10-28T01:26:17.099Z,6.60
2022-10-28T01:28:55.513Z,6.60
2022-10-28T01:31:54.092Z,7.05
2022-10-28T01:34:36.842Z,7.03
2022-10-28T01:40:04.283Z,6.20
2022-10-28T01:42:40.852Z,6.90
2022-10-28T01:45:37.535Z,7.65
2022-10-28T01:48:14.622Z,7.43
2022-10-28T01:50:49.869Z,6.78
2022-10-28T01:53:20.923Z,6.90
2022-10-28T01:55:52.816Z,7.20
2022-10-28T01:58:25.274Z,7.00
2022-10-28T02:03:18.715Z,6.82
2022-10-28T02:05:49.760Z,6.47
2022-10-28T02:08:29.378Z,6.57
2022-10-28T02:11:14.764Z,6.30
2022-10-28T02:13:59.624Z,7.20
2022-10-28T02:16:44.115Z,6.63
2022-10-28T02:19:35.819Z,6.55
2022-10-28T02:22:05.185Z,6.25
2022-10-28T02:24:55.455Z,6.13
2022-10-28T02:27:47.027Z,5.78
2022-10-28T02:30:38.580Z,6.55
2022-10-28T02:33:10.523Z,5.95
2022-10-28T02:35:49.891Z,5.85
2022-10-28T02:38:28.242Z,6.93
2022-10-28T02:41:00.192Z,7.07
2022-10-28T02:43:31.189Z,6.57
2022-10-28T02:46:01.596Z,6.82
2022-10-28T02:48:41.818Z,6.18
2022-10-28T02:51:19.832Z,6.85
2022-10-28T02:53:59.696Z,7.32
2022-10-28T02:56:28.568Z,6.90
2022-10-28T02:58:55.411Z,6.93
2022-10-28T03:01:22.281Z,7.18
2022-10-28T03:03:49.002Z,8.02
2022-10-28T03:06:15.682Z,8.02
2022-10-28T03:08:42.447Z,6.97
2022-10-28T03:11:09.448Z,7.75
2022-10-28T03:13:36.200Z,7.70
2022-10-28T03:16:02.888Z,7.32
2022-10-28T03:18:29.531Z,7.15
2022-10-28T03:20:58.873Z,7.53
2022-10-28T03:23:25.901Z,7.57
2022-10-28T03:25:52.531Z,7.10
2022-10-28T03:28:19.170Z,8.00
2022-10-28T03:30:45.807Z,7.85
2022-10-28T03:33:12.498Z,7.07
2022-10-28T03:35:39.164Z,7.05
2022-10-28T03:38:05.853Z,6.55
2022-10-28T03:40:32.663Z,7.18
2022-10-28T03:42:59.305Z,6.35
2022-10-28T03:45:26.247Z,7.82
2022-10-28T03:47:53.239Z,8.40
2022-10-28T03:50:20.078Z,7.70
2022-10-28T03:52:46.799Z,7.45
2022-10-28T03:55:13.501Z,8.27
2022-10-28T03:57:40.180Z,8.07
2022-10-28T04:00:07.388Z,8.00
2022-10-28T04:02:40.168Z,8.05
2022-10-28T04:05:07.177Z,8.15
2022-10-28T04:07:34.639Z,8.13
2022-10-28T04:10:01.268Z,7.68
2022-10-28T04:12:27.898Z,7.95
2022-10-28T04:14:54.588Z,8.63
2022-10-28T04:17:21.226Z,8.55
2022-10-28T04:19:47.875Z,8.10
2022-10-28T04:22:14.540Z,7.88
2022-10-28T04:24:41.187Z,8.70
2022-10-28T04:27:07.892Z,8.77
2022-10-28T04:29:34.554Z,7.45
2022-10-28T04:32:01.348Z,8.65
2022-10-28T04:34:28.062Z,7.32
2022-10-28T04:36:54.718Z,7.68
2022-10-28T04:39:21.368Z,8.10
2022-10-28T04:41:48.330Z,7.93
2022-10-28T04:44:15.048Z,8.60
2022-10-28T04:46:42.338Z,8.00
2022-10-28T04:49:09.812Z,7.72
2022-10-28T04:51:36.480Z,8.07
2022-10-28T04:54:03.423Z,7.80
2022-10-28T04:56:33.094Z,7.43
2022-10-28T04:59:00.026Z,8.07
2022-10-28T05:01:26.743Z,7.22
2022-10-28T05:03:53.893Z,7.40
2022-10-28T05:06:20.603Z,7.30
2022-10-28T05:08:47.233Z,8.30
2022-10-28T05:11:13.882Z,7.90
2022-10-28T05:13:40.610Z,6.93
2022-10-28T05:16:07.952Z,7.38
2022-10-28T05:18:34.665Z,7.13
2022-10-28T05:21:01.376Z,7.22
2022-10-28T05:23:30.802Z,8.48
2022-10-28T05:25:58.042Z,7.72
2022-10-28T05:28:24.694Z,7.60
2022-10-28T05:30:51.350Z,7.82
2022-10-28T05:33:18.056Z,7.90
2022-10-28T05:35:44.745Z,8.25
2022-10-28T05:38:11.477Z,8.35
2022-10-28T05:40:38.232Z,7.35
2022-10-28T05:43:04.974Z,8.50
2022-10-28T05:45:31.690Z,8.40
2022-10-28T05:47:58.396Z,7.80
2022-10-28T05:50:25.073Z,7.35
2022-10-28T05:52:54.082Z,8.98
2022-10-28T05:55:22.058Z,8.65
2022-10-28T05:57:50.413Z,8.25
2022-10-28T06:00:19.687Z,8.20
2022-10-28T06:02:46.439Z,7.95
2022-10-28T06:05:14.192Z,7.57
2022-10-28T06:07:41.652Z,7.88
2022-10-28T06:10:10.412Z,6.85
2022-10-28T06:12:35.651Z,7.03
2022-10-28T06:15:03.076Z,7.47
2022-10-28T06:17:29.768Z,6.30
2022-10-28T06:19:56.423Z,6.72
2022-10-28T06:22:23.079Z,7.65
2022-10-28T06:24:49.708Z,7.32
2022-10-28T06:27:16.321Z,6.90
2022-10-28T06:29:42.947Z,6.13
2022-10-28T06:32:09.700Z,6.63
2022-10-28T06:34:37.631Z,6.97
2022-10-28T06:37:05.547Z,7.65
2022-10-28T06:39:32.837Z,6.88
2022-10-28T06:41:59.672Z,7.47
2022-10-28T06:44:26.314Z,7.65
2022-10-28T06:46:56.281Z,6.85
2022-10-28T06:49:22.940Z,8.48
2022-10-28T06:51:49.983Z,6.72
2022-10-28T06:54:16.692Z,7.57
2022-10-28T06:56:45.174Z,7.18
2022-10-28T06:59:11.858Z,6.65
2022-10-28T07:01:38.684Z,6.88
2022-10-28T07:04:06.404Z,6.57
2022-10-28T07:06:33.049Z,7.60
2022-10-28T07:08:59.678Z,7.35
2022-10-28T07:11:26.322Z,6.05
2022-10-28T07:13:52.950Z,6.50
2022-10-28T07:16:19.656Z,6.43
2022-10-28T07:18:46.328Z,7.80
2022-10-28T07:21:14.258Z,7.32
2022-10-28T07:23:40.910Z,6.90
2022-10-28T07:26:07.633Z,6.93
2022-10-28T07:28:34.287Z,7.15
2022-10-28T07:31:02.522Z,8.45
2022-10-28T07:33:29.341Z,7.72
2022-10-28T07:35:56.073Z,6.50
2022-10-28T07:38:23.011Z,6.93
2022-10-28T07:40:49.633Z,7.10
2022-10-28T07:43:16.312Z,6.40
2022-10-28T07:45:42.969Z,7.18
2022-10-28T07:48:09.711Z,7.07
2022-10-28T07:50:36.421Z,7.00
2022-10-28T07:53:03.459Z,6.75
2022-10-28T07:55:30.162Z,7.18
2022-10-28T07:57:57.229Z,7.00
2022-10-28T08:00:24.132Z,7.63
2022-10-28T08:02:50.754Z,7.20
2022-10-28T08:05:17.541Z,6.53
2022-10-28T08:07:44.493Z,7.03
2022-10-28T08:10:11.212Z,6.50
2022-10-28T08:12:37.869Z,7.07
2022-10-28T08:15:05.107Z,6.03
2022-10-28T08:17:31.985Z,7.22
2022-10-28T08:19:58.637Z,6.90
2022-10-28T08:22:25.353Z,6.45
2022-10-28T08:24:52.021Z,6.05
2022-10-28T08:27:18.676Z,6.75
2022-10-28T08:29:45.289Z,6.30
2022-10-28T08:32:12.038Z,6.32
2022-10-28T08:34:42.438Z,6.63
2022-10-28T08:37:10.536Z,6.33
2022-10-28T08:39:37.382Z,7.00
2022-10-28T08:42:34.709Z,6.93
2022-10-28T08:45:01.331Z,5.95
2022-10-28T08:48:06.514Z,6.38
2022-10-28T08:50:45.085Z,5.65
2022-10-28T08:53:21.148Z,6.43
2022-10-28T08:55:50.041Z,6.40
2022-10-28T08:58:19.572Z,6.50
2022-10-28T09:00:56.033Z,7.53
2022-10-28T09:03:39.016Z,7.18
2022-10-28T09:06:08.673Z,6.35
2022-10-28T09:08:39.240Z,6.80
2022-10-28T09:11:14.945Z,5.45
2022-10-28T09:13:58.491Z,6.32
2022-10-28T09:16:31.137Z,7.00
2022-10-28T09:19:03.058Z,7.53
2022-10-28T09:21:55.392Z,6.00
2022-10-28T09:24:37.531Z,5.53
2022-10-28T09:27:18.146Z,6.32
2022-10-28T09:30:01.105Z,6.05
2022-10-28T09:32:42.535Z,7.47
2022-10-28T09:35:32.097Z,6.72
2022-10-28T09:38:40.217Z,6.50
2022-10-28T09:41:17.955Z,6.03
2022-10-28T09:43:56.651Z,6.80
2022-10-28T09:46:25.643Z,6.18
2022-10-28T09:48:56.307Z,5.82
2022-10-28T09:51:46.077Z,6.57
2022-10-28T09:54:13.694Z,5.47
2022-10-28T09:56:40.928Z,5.55
2022-10-28T09:59:11.532Z,5.57
2022-10-28T10:01:39.697Z,5.68
2022-10-28T10:04:18.352Z,5.57
2022-10-28T10:06:46.900Z,5.95
2022-10-28T10:09:23.750Z,5.40
2022-10-28T10:11:53.763Z,5.95
2022-10-28T10:14:26.753Z,6.25
2022-10-28T10:16:57.511Z,6.28
2022-10-28T10:19:24.248Z,6.20
2022-10-28T10:21:54.122Z,5.75
2022-10-28T10:24:25.316Z,5.80
2022-10-28T10:26:53.049Z,5.82
2022-10-28T10:29:21.353Z,5.57
2022-10-28T10:31:48.819Z,6.53
2022-10-28T10:34:23.935Z,5.75
2022-10-28T10:36:54.149Z,5.97
2022-10-28T10:39:26.753Z,6.15
2022-10-28T10:41:56.239Z,5.75
2022-10-28T10:44:23.072Z,5.93
2022-10-28T10:47:05.931Z,5.57
2022-10-28T10:49:36.796Z,5.80
2022-10-28T10:52:09.947Z,6.07
2022-10-28T10:54:37.960Z,6.43
2022-10-28T10:57:20.732Z,6.47
2022-10-28T10:59:51.179Z,6.00
2022-10-28T11:02:46.094Z,6.25
2022-10-28T11:05:25.782Z,6.10
2022-10-28T11:07:58.510Z,6.40
2022-10-28T11:10:30.200Z,5.93
2022-10-28T11:13:05.385Z,6.68
2022-10-28T11:15:33.004Z,6.45
2022-10-28T11:18:10.947Z,5.75
2022-10-28T11:20:43.892Z,5.63
2022-10-28T11:23:22.085Z,5.95
2022-10-28T11:25:53.348Z,6.00
2022-10-28T11:28:47.026Z,5.88
2022-10-28T11:31:37.867Z,5.90
2022-10-28T11:34:39.470Z,6.30
2022-10-28T11:37:40.912Z,5.60
2022-10-28T11:40:13.435Z,5.18
2022-10-28T11:42:51.233Z,5.88
2022-10-28T11:45:51.415Z,6.70
2022-10-28T11:48:30.131Z,5.82
2022-10-28T11:51:17.789Z,5.63
2022-10-28T11:54:03.279Z,5.35
2022-10-28T11:56:45.648Z,5.40
2022-10-28T11:59:50.878Z,6.38
2022-10-28T12:02:20.235Z,6.60
2022-10-28T12:05:00.210Z,5.20
2022-10-28T12:07:48.013Z,5.47
2022-10-28T12:10:33.508Z,6.32
2022-10-28T12:13:30.949Z,5.70
2022-10-28T12:16:22.206Z,6.20
2022-10-28T12:19:01.828Z,6.65
2022-10-28T12:21:51.520Z,6.20
2022-10-28T12:24:23.209Z,5.70
2022-10-28T12:26:56.578Z,5.30
2022-10-28T12:29:46.699Z,5.63
2022-10-28T12:32:20.177Z,5.75
2022-10-28T12:35:11.189Z,5.78
2022-10-28T12:37:44.807Z,6.55
2022-10-28T12:40:22.209Z,4.82
2022-10-28T12:43:10.717Z,5.88
2022-10-28T12:45:39.979Z,6.60
2022-10-28T12:48:13.550Z,6.30
2022-10-28T12:50:45.039Z,5.43
2022-10-28T12:53:33.933Z,5.50
2022-10-28T12:56:14.355Z,6.35
2022-10-28T12:59:05.668Z,5.65
2022-10-28T13:01:34.593Z,5.35
2022-10-28T13:04:01.627Z,5.53
2022-10-28T13:07:02.049Z,6.05
2022-10-28T13:09:46.590Z,6.72
2022-10-28T13:12:29.641Z,5.28
2022-10-28T13:15:02.115Z,5.85
2022-10-28T13:17:57.134Z,5.72
2022-10-28T13:20:32.819Z,5.82
2022-10-28T13:22:59.477Z,5.13
2022-10-28T13:25:50.240Z,5.85
2022-10-28T13:28:21.511Z,5.32
2022-10-28T13:31:00.436Z,5.53
2022-10-28T13:33:28.992Z,5.72
2022-10-28T13:36:15.093Z,5.53
2022-10-28T13:38:42.382Z,6.47
2022-10-28T13:41:12.058Z,5.38
2022-10-28T13:43:51.040Z,6.35
2022-10-28T13:46:55.686Z,6.10
2022-10-28T13:49:34.341Z,7.68
2022-10-28T13:52:04.135Z,5.13
2022-10-28T13:54:54.886Z,5.20
2022-10-28T13:57:39.769Z,5.82
2022-10-28T14:00:18.427Z,5.20
2022-10-28T14:02:55.063Z,6.32
2022-10-28T14:05:42.397Z,5.82
2022-10-28T14:08:25.042Z,5.35
2022-10-28T14:11:22.152Z,5.95
2022-10-28T14:13:53.432Z,6.28
2022-10-28T14:16:29.083Z,5.63
2022-10-28T14:19:14.984Z,5.13
2022-10-28T14:22:07.283Z,5.47
2022-10-28T14:24:35.495Z,5.85
2022-10-28T14:27:08.122Z,5.72
2022-10-28T14:30:12.163Z,5.97
2022-10-28T14:32:57.250Z,6.40
2022-10-28T14:35:42.874Z,6.10
2022-10-28T14:38:41.120Z,5.32
2022-10-28T14:41:29.140Z,6.03
2022-10-28T14:44:14.467Z,6.25
2022-10-28T14:46:56.357Z,4.93
2022-10-28T14:49:32.362Z,6.00
2022-10-28T14:52:08.622Z,6.10
2022-10-28T14:54:55.338Z,5.38
2022-10-28T14:57:33.896Z,5.35
2022-10-28T15:00:06.982Z,6.72
2022-10-28T15:02:37.116Z,6.40
2022-10-28T15:05:12.623Z,6.20
2022-10-28T15:07:40.998Z,6.18
2022-10-28T15:10:19.674Z,5.50
2022-10-28T15:12:51.765Z,6.53
2022-10-28T15:15:24.722Z,6.53
2022-10-28T15:17:51.847Z,5.55
2022-10-28T15:20:27.664Z,5.38
2022-10-28T15:23:12.023Z,5.93
2022-10-28T15:25:38.677Z,5.90
2022-10-28T15:28:05.385Z,6.22
2022-10-28T15:30:32.581Z,6.32
2022-10-28T15:33:28.292Z,6.57
2022-10-28T15:36:21.077Z,6.13
2022-10-28T15:38:52.760Z,7.18
2022-10-28T15:41:25.282Z,6.53
2022-10-28T15:43:59.656Z,6.32
2022-10-28T15:46:27.211Z,5.50
2022-10-28T15:48:55.211Z,6.30
2022-10-28T15:51:22.125Z,6.03
2022-10-28T15:53:53.927Z,6.57
2022-10-28T15:56:29.193Z,5.90
2022-10-28T15:59:19.393Z,6.15
2022-10-28T16:01:46.246Z,5.75
2022-10-28T16:04:18.984Z,5.75
2022-10-28T16:06:46.232Z,6.35
2022-10-28T16:09:22.785Z,5.05
2022-10-28T16:11:52.466Z,5.53
2022-10-28T16:14:44.187Z,5.93
2022-10-28T16:17:19.684Z,6.15
2022-10-28T16:19:52.862Z,6.80
2022-10-28T16:22:20.785Z,6.15
2022-10-28T16:24:48.628Z,5.05
2022-10-28T16:27:18.208Z,6.10
2022-10-28T16:29:45.152Z,6.78
2022-10-28T16:32:13.426Z,6.50
2022-10-28T16:34:40.579Z,6.07
2022-10-28T16:37:31.585Z,6.93
2022-10-28T16:39:58.469Z,5.82
2022-10-28T16:42:25.895Z,6.18
2022-10-28T16:44:52.940Z,5.85
2022-10-28T16:47:21.533Z,6.07
2022-10-28T16:49:54.501Z,7.38
2022-10-28T16:52:29.473Z,5.70
2022-10-28T16:54:56.849Z,5.80
2022-10-28T17:02:33.619Z,5.72
2022-10-28T17:05:01.060Z,5.68
2022-10-28T17:07:28.882Z,5.63
2022-10-28T17:09:56.672Z,6.25
2022-10-28T17:12:25.963Z,6.50
2022-10-28T17:14:52.913Z,6.43
2022-10-28T17:17:19.639Z,5.70
2022-10-28T17:19:46.701Z,5.75
2022-10-28T17:22:13.998Z,6.13
2022-10-28T17:24:40.694Z,6.25
2022-10-28T17:27:07.841Z,6.18
2022-10-28T17:29:34.550Z,5.95
2022-10-28T17:32:02.322Z,6.80
2022-10-28T17:34:29.101Z,6.53
2022-10-28T17:36:55.892Z,5.97
2022-10-28T17:39:26.253Z,7.07
2022-10-28T17:41:53.987Z,6.43
2022-10-28T17:44:20.882Z,6.72
2022-10-28T17:46:51.475Z,7.30
2022-10-28T17:49:18.933Z,6.43
2022-10-28T17:51:45.607Z,6.93
2022-10-28T17:54:12.474Z,6.38
2022-10-28T17:56:41.779Z,6.50
2022-10-28T17:59:08.635Z,7.03
2022-10-28T18:01:35.823Z,6.03
2022-10-28T18:04:03.656Z,6.05
2022-10-28T18:06:30.311Z,5.95
2022-10-28T18:08:58.209Z,6.63
2022-10-28T18:11:26.447Z,5.68
2022-10-28T18:13:55.751Z,6.32
2022-10-28T18:16:25.260Z,6.07
2022-10-28T18:18:53.250Z,5.50
2022-10-28T18:21:20.282Z,6.00
2022-10-28T18:23:56.977Z,5.45
2022-10-28T18:26:23.604Z,6.25
2022-10-28T18:28:50.301Z,5.93
2022-10-28T18:31:19.381Z,5.72
2022-10-28T18:33:46.987Z,5.80
2022-10-28T18:36:19.069Z,5.95
2022-10-28T18:38:45.749Z,6.15
2022-10-28T18:41:14.652Z,6.50
2022-10-28T18:43:41.711Z,6.35
2022-10-28T18:46:08.814Z,5.40
2022-10-28T18:48:35.725Z,6.05
2022-10-28T18:51:06.718Z,5.25
2022-10-28T18:53:42.037Z,5.63
2022-10-28T18:56:11.929Z,5.90
2022-10-28T18:58:38.647Z,5.65
2022-10-28T19:01:16.644Z,5.80
2022-10-28T19:03:44.185Z,5.30
2022-10-28T19:06:13.519Z,5.28
2022-10-28T19:08:40.616Z,5.35
2022-10-28T19:11:09.165Z,4.47
2022-10-28T19:13:37.683Z,5.32
2022-10-28T19:16:05.413Z,4.85
2022-10-28T19:18:35.333Z,4.57
2022-10-28T19:21:08.134Z,4.88
2022-10-28T19:23:34.885Z,4.72
2022-10-28T19:26:01.892Z,4.55
2022-10-28T19:28:28.565Z,4.32
2022-10-28T19:31:06.591Z,4.75
2022-10-28T19:33:33.572Z,4.80
2022-10-28T19:36:04.657Z,4.40
2022-10-28T19:38:36.489Z,4.22
2022-10-28T19:41:05.556Z,4.70
2022-10-28T19:43:32.305Z,4.70
2022-10-28T19:46:16.502Z,4.55
2022-10-28T19:48:46.117Z,4.00
2022-10-28T19:51:21.342Z,3.67
2022-10-28T19:53:56.000Z,4.00
2022-10-28T19:56:23.457Z,3.97
2022-10-28T19:58:55.351Z,3.58
2022-10-28T20:01:23.634Z,3.50
2022-10-28T20:03:51.518Z,3.38
2022-10-28T20:06:20.611Z,2.85
2022-10-28T20:08:48.196Z,2.90
2022-10-28T20:11:24.752Z,2.78
2022-10-28T20:13:58.327Z,3.40
2022-10-28T20:16:25.669Z,2.58
2022-10-28T20:18:56.981Z,3.13
2022-10-28T20:21:25.593Z,2.67
2022-10-28T20:23:54.410Z,2.72
2022-10-28T20:26:28.897Z,2.88
2022-10-28T20:28:56.215Z,3.03
2022-10-28T20:31:28.437Z,2.72
2022-10-28T20:33:58.424Z,2.67
2022-10-28T20:36:30.281Z,3.25
2022-10-28T20:38:58.108Z,2.92
2022-10-28T20:41:26.197Z,3.25
2022-10-28T20:43:54.110Z,3.08
2022-10-28T20:46:22.369Z,3.40
2022-10-28T20:48:49.755Z,2.90
2022-10-28T20:51:16.675Z,2.90
2022-10-28T20:53:43.366Z,3.25
2022-10-28T20:56:19.974Z,2.63
2022-10-28T20:58:47.072Z,2.83
2022-10-28T21:01:15.263Z,3.80
2022-10-28T21:03:43.254Z,2.72
2022-10-28T21:06:11.075Z,3.65
2022-10-28T21:08:37.743Z,3.50
2022-10-28T21:11:06.318Z,3.55
2022-10-28T21:13:33.650Z,3.58
2022-10-28T21:16:04.822Z,3.25
2022-10-28T21:18:32.045Z,3.22
2022-10-28T21:20:59.700Z,3.45
2022-10-28T21:23:27.290Z,3.70
2022-10-28T21:25:55.858Z,4.05
2022-10-28T21:28:23.264Z,4.28
2022-10-28T21:30:50.100Z,3.50
2022-10-28T21:33:18.817Z,4.32
2022-10-28T21:35:58.571Z,4.10
2022-10-28T21:38:26.561Z,4.45
2022-10-28T21:41:03.110Z,4.00
2022-10-28T21:43:31.574Z,3.75
2022-10-28T21:45:58.417Z,3.20
2022-10-28T21:48:27.293Z,4.05
2022-10-28T21:50:56.242Z,4.18
2022-10-28T21:53:23.372Z,3.85
2022-10-28T21:55:51.360Z,3.67
2022-10-28T21:58:19.110Z,3.22
2022-10-28T22:00:45.881Z,3.55
2022-10-28T22:03:13.386Z,3.97
2022-10-28T22:05:40.171Z,4.45
2022-10-28T22:08:06.817Z,3.75
2022-10-28T22:10:33.542Z,4.03
2022-10-28T22:13:00.177Z,3.80
2022-10-28T22:15:26.851Z,3.53
2022-10-28T22:17:54.361Z,3.72
2022-10-28T22:20:21.370Z,4.00
2022-10-28T22:22:48.072Z,3.67
2022-10-28T22:25:14.779Z,4.20
2022-10-28T22:27:41.629Z,3.80
2022-10-28T22:30:08.954Z,3.92
2022-10-28T22:32:35.636Z,4.47
2022-10-28T22:35:02.460Z,3.60
2022-10-28T22:37:29.115Z,3.10
2022-10-28T22:39:55.736Z,3.65
2022-10-28T22:42:24.016Z,3.55
2022-10-28T22:44:50.651Z,3.20
2022-10-28T22:47:17.293Z,4.05
2022-10-28T22:49:43.952Z,3.90
2022-10-28T22:52:10.604Z,3.53
2022-10-28T22:54:37.256Z,4.47
2022-10-28T22:57:03.891Z,3.65
2022-10-28T22:59:30.517Z,3.92
2022-10-28T23:01:57.214Z,4.65
2022-10-28T23:04:23.956Z,5.13
2022-10-28T23:06:50.576Z,4.93
2022-10-28T23:09:17.484Z,6.43
2022-10-28T23:11:44.136Z,5.38
2022-10-28T23:14:10.765Z,5.20
2022-10-28T23:16:37.550Z,6.63
2022-10-28T23:19:04.197Z,6.93
2022-10-28T23:21:30.859Z,5.70
2022-10-28T23:23:59.499Z,6.28
2022-10-28T23:26:28.102Z,6.38
2022-10-28T23:28:57.144Z,5.63
2022-10-28T23:31:24.044Z,5.05
2022-10-28T23:33:52.595Z,6.00
2022-10-28T23:36:19.413Z,5.85
2022-10-28T23:38:46.094Z,5.63
2022-10-28T23:41:17.935Z,5.90
2022-10-28T23:43:44.989Z,5.93
2022-10-28T23:46:12.176Z,5.75
2022-10-28T23:48:38.848Z,6.25
2022-10-28T23:51:05.904Z,4.85
2022-10-28T23:53:32.558Z,5.38
2022-10-28T23:55:59.259Z,5.95
2022-10-28T23:58:26.220Z,4.82
